Terminal Aerodrome Forecast
Issued by NWS Sterling, VA

Current Version | Previous Version | Text Only | Print | Product List | Glossary Off
Versions: 1 2 3 4 5 6 7 8 9 10 11 12 13 14 15 16 17

000
FTUS41 KLWX 282333
TAFMRB
TAF
KMRB 282333Z 2900/2924 05008KT 5SM -SHRA OVC015
     FM290100 04008KT 3SM SHRA OVC010
     FM290300 03008KT 2SM SHRA OVC007=

USA.gov is the U.S. government's official web portal to all federal, state and local government web resources and services.